Time;durP1;ratioP1;P1;durP2;ratioP2;P2;SDS_P1;SDS_P2;PMS_P1;PMS_P2;Temp;Humidity;BMP_temperature;BMP_pressure;BME280_temperature;BME280_humidity;BME280_pressure;Samples;Min_cycle;Max_cycle;Signal;HPM_P1;HPM_P2
2023/09/21 00:01:24;;;;;;;3.13;1.17;;;14.00;99.90;;;13.28;100.00;96714.00;4979540;28;20057;-74
2023/09/21 00:03:53;;;;;;;2.08;1.08;;;13.90;99.90;;;13.34;100.00;96710.13;4946109;28;1411148;-75
2023/09/21 00:06:20;;;;;;;1.88;1.00;;;14.00;99.90;;;13.52;100.00;96713.28;4985439;28;20181;-75
2023/09/21 00:09:02;;;;;;;4.00;1.35;;;14.00;99.90;;;13.57;100.00;96705.97;4986500;28;20708;-74
2023/09/21 00:11:40;;;;;;;3.00;1.00;;;14.00;99.90;;;13.60;100.00;96701.38;4984878;28;20050;-74
2023/09/21 00:14:07;;;;;;;4.43;0.95;;;14.10;99.90;;;13.58;100.00;96695.44;4984905;28;20050;-74
2023/09/21 00:16:34;;;;;;;2.17;1.13;;;14.10;99.90;;;13.51;100.00;96694.19;4980166;28;20128;-74
2023/09/21 00:19:06;;;;;;;2.00;1.05;;;14.10;99.90;;;13.55;100.00;96698.25;4978468;28;20165;-74
2023/09/21 00:21:34;;;;;;;4.00;1.10;;;14.10;99.90;;;13.55;100.00;96692.22;4982983;28;20054;-74
2023/09/21 00:24:15;;;;;;;3.03;1.00;;;14.20;99.90;;;13.63;100.00;96687.28;4983275;28;20165;-74
2023/09/21 00:26:47;;;;;;;3.33;1.40;;;14.20;99.90;;;13.51;100.00;96677.72;4999024;28;20580;-74
2023/09/21 00:29:15;;;;;;;3.13;1.13;;;14.20;99.90;;;13.56;100.00;96680.84;4981021;28;20052;-75
2023/09/21 00:31:48;;;;;;;4.18;0.98;;;14.20;99.90;;;13.56;100.00;96679.06;4983228;28;20046;-74
2023/09/21 00:34:32;;;;;;;3.08;1.15;;;14.00;99.90;;;13.46;100.00;96672.00;4983301;28;20557;-74
2023/09/21 00:37:23;;;;;;;3.42;1.17;;;14.00;99.90;;;13.40;100.00;96673.25;4982055;28;20050;-74
2023/09/21 00:39:52;;;;;;;5.13;1.30;;;13.90;99.90;;;13.29;100.00;96670.53;4982457;28;20078;-74
2023/09/21 00:42:22;;;;;;;2.70;1.20;;;13.80;99.90;;;13.22;100.00;96664.03;4983704;28;20095;-74
2023/09/21 00:44:51;;;;;;;5.05;1.30;;;13.80;99.90;;;13.15;100.00;96661.84;4980006;28;20050;-75
2023/09/21 00:47:33;;;;;;;3.45;1.40;;;13.70;99.90;;;13.19;100.00;96673.72;4981734;28;20058;-74
2023/09/21 00:50:06;;;;;;;2.15;1.00;;;13.60;99.90;;;13.10;100.00;96663.94;4994136;28;20054;-74
2023/09/21 00:52:33;;;;;;;3.75;1.25;;;13.70;99.90;;;13.17;100.00;96666.94;4983343;28;20651;-74
2023/09/21 00:55:02;;;;;;;4.05;1.38;;;13.70;99.90;;;13.34;100.00;96666.69;4986767;28;20054;-74
2023/09/21 00:57:32;;;;;;;2.33;1.02;;;13.80;99.90;;;13.39;100.00;96666.38;4985570;28;20458;-74
2023/09/21 01:00:00;;;;;;;2.63;1.10;;;13.90;99.90;;;13.36;100.00;96662.19;4981231;28;20213;-74
2023/09/21 01:02:27;;;;;;;5.57;1.10;;;14.00;99.90;;;13.28;100.00;96658.44;4977606;28;20050;-73
2023/09/21 01:04:55;;;;;;;2.33;1.02;;;14.00;99.90;;;13.25;100.00;96653.41;4991048;28;20058;-74
2023/09/21 01:07:26;;;;;;;3.65;1.10;;;14.00;99.90;;;13.38;100.00;96659.47;4981848;28;20065;-74
2023/09/21 01:09:53;;;;;;;4.57;1.08;;;14.00;99.90;;;13.37;100.00;96656.03;4996428;28;20062;-74
2023/09/21 01:12:22;;;;;;;3.38;1.13;;;14.00;99.90;;;13.48;100.00;96649.25;4990657;28;20060;-74
2023/09/21 01:15:08;;;;;;;1.95;0.82;;;14.00;99.90;;;13.44;100.00;96658.22;4978544;28;20054;-74
2023/09/21 01:17:39;;;;;;;4.47;1.20;;;14.10;99.90;;;13.34;100.00;96651.03;4966684;28;20078;-74
2023/09/21 01:20:42;;;;;;;2.35;0.80;;;14.10;99.90;;;13.53;100.00;96649.78;4980626;28;20054;-74
2023/09/21 01:23:17;;;;;;;2.90;1.08;;;14.00;99.90;;;13.71;100.00;96640.66;4978916;28;20061;-74
2023/09/21 01:25:49;;;;;;;6.43;0.90;;;14.10;99.90;;;13.85;100.00;96638.88;4978750;28;20470;-74
2023/09/21 01:28:22;;;;;;;2.97;1.20;;;14.10;99.90;;;13.73;100.00;96633.56;4985603;28;20165;-74
2023/09/21 01:30:51;;;;;;;3.97;1.00;;;14.20;99.90;;;13.87;100.00;96635.22;4993531;28;20477;-74
2023/09/21 01:33:18;;;;;;;2.20;1.10;;;14.20;99.90;;;13.92;100.00;96637.50;4978645;28;20581;-74
2023/09/21 01:35:46;;;;;;;3.47;1.08;;;14.20;99.90;;;13.95;100.00;96626.81;4994481;28;20620;-74
2023/09/21 01:38:14;;;;;;;3.28;1.02;;;14.30;99.90;;;14.12;100.00;96631.69;4978554;28;20050;-74
2023/09/21 01:40:42;;;;;;;2.08;0.80;;;14.50;99.90;;;14.23;100.00;96630.88;4979754;28;21065;-74
2023/09/21 01:43:52;;;;;;;3.05;0.90;;;14.50;99.90;;;14.28;100.00;96622.72;4995325;28;20047;-74
2023/09/21 01:46:22;;;;;;;2.38;0.80;;;14.70;99.90;;;14.30;100.00;96623.44;4975644;28;20077;-74
2023/09/21 01:48:53;;;;;;;1.98;1.00;;;14.70;99.90;;;14.31;100.00;96612.06;4981124;28;20052;-74
2023/09/21 01:51:20;;;;;;;2.53;0.88;;;14.70;99.90;;;14.38;100.00;96615.91;4981191;28;20046;-74
2023/09/21 01:53:48;;;;;;;3.83;1.20;;;14.80;99.90;;;14.55;100.00;96599.00;4965989;28;20042;-74
2023/09/21 01:56:16;;;;;;;2.33;1.08;;;14.90;99.90;;;14.74;100.00;96595.88;4981772;28;20054;-75
2023/09/21 01:58:43;;;;;;;1.73;0.80;;;15.00;99.90;;;14.95;100.00;96586.41;4983848;28;20042;-74
2023/09/21 02:01:16;;;;;;;2.30;0.85;;;15.10;99.90;;;15.05;100.00;96583.91;4979515;28;20065;-74
2023/09/21 02:04:00;;;;;;;4.78;0.98;;;15.30;99.90;;;15.21;100.00;96573.97;4982741;28;20062;-74
2023/09/21 02:06:27;;;;;;;2.70;1.10;;;15.40;99.90;;;15.43;100.00;96567.88;4981327;28;20442;-74
2023/09/21 02:08:54;;;;;;;4.38;1.13;;;15.70;99.90;;;15.67;100.00;96552.06;4966568;28;20051;-74
2023/09/21 02:11:22;;;;;;;3.58;0.70;;;15.90;99.90;;;15.73;100.00;96555.16;4964683;28;20054;-74
2023/09/21 02:13:49;;;;;;;2.22;0.95;;;16.10;99.90;;;16.08;100.00;96552.34;4984364;28;20047;-75
2023/09/21 02:16:16;;;;;;;3.42;1.02;;;16.30;99.90;;;15.81;100.00;96547.53;4980496;28;20532;-74
2023/09/21 02:18:44;;;;;;;2.13;1.15;;;16.30;99.90;;;15.92;100.00;96541.41;4980479;28;20042;-74
2023/09/21 02:21:12;;;;;;;3.95;1.08;;;16.30;99.90;;;15.88;100.00;96527.78;4982822;28;20046;-73
2023/09/21 02:23:40;;;;;;;3.75;0.88;;;16.40;99.90;;;16.13;100.00;96531.84;4981529;28;20470;-74
2023/09/21 02:26:09;;;;;;;2.22;0.82;;;16.50;99.90;;;16.37;100.00;96526.34;4982624;28;20606;-74
2023/09/21 02:28:37;;;;;;;4.95;0.98;;;16.60;99.90;;;16.78;100.00;96518.63;4983055;28;20120;-74
2023/09/21 02:31:12;;;;;;;2.63;1.00;;;16.90;99.90;;;17.19;100.00;96515.13;4979829;28;20055;-74
2023/09/21 02:33:42;;;;;;;3.97;0.80;;;17.30;99.90;;;17.33;100.00;96513.91;4991687;28;20046;-74
2023/09/21 02:36:19;;;;;;;1.70;0.82;;;17.60;99.90;;;17.41;100.00;96519.34;4982302;28;20513;-74
2023/09/21 02:38:47;;;;;;;2.40;1.00;;;17.70;99.90;;;17.53;100.00;96514.81;4982122;28;20444;-74
2023/09/21 02:41:14;;;;;;;2.75;0.80;;;17.90;99.90;;;17.69;100.00;96504.63;4982134;28;20058;-74
2023/09/21 02:43:41;;;;;;;2.10;0.80;;;18.10;99.90;;;17.81;100.00;96504.50;4980939;28;20093;-74
2023/09/21 02:46:08;;;;;;;4.93;0.90;;;18.20;99.90;;;17.80;100.00;96508.91;4982459;28;20045;-75
2023/09/21 02:48:36;;;;;;;1.75;0.75;;;18.20;99.90;;;17.95;100.00;96509.41;4982894;28;20054;-74
2023/09/21 02:51:04;;;;;;;2.63;0.65;;;18.30;99.90;;;17.90;100.00;96494.06;4977491;28;20046;-74
2023/09/21 02:53:31;;;;;;;1.55;0.60;;;18.30;99.90;;;17.89;100.00;96496.81;4980518;28;20047;-74
2023/09/21 02:56:27;;;;;;;2.13;0.90;;;18.40;99.90;;;18.01;100.00;96498.31;4997522;28;20058;-74
2023/09/21 02:58:54;;;;;;;2.50;0.95;;;18.40;99.90;;;17.96;100.00;96496.13;4982176;28;20065;-74
2023/09/21 03:01:21;;;;;;;1.50;0.73;;;18.50;99.90;;;17.95;100.00;96494.47;4980647;28;20050;-74
2023/09/21 03:03:49;;;;;;;2.97;0.70;;;18.50;99.90;;;18.24;100.00;96484.91;4997290;28;20073;-74
2023/09/21 03:06:18;;;;;;;2.88;1.05;;;18.60;99.90;;;18.33;100.00;96490.16;4983418;28;20058;-75
2023/09/21 03:08:48;;;;;;;2.17;0.73;;;18.70;99.90;;;18.45;100.00;96490.00;4999935;28;20054;-75
2023/09/21 03:11:19;;;;;;;3.05;0.70;;;18.80;99.90;;;18.46;100.00;96481.97;4997365;28;20066;-74
2023/09/21 03:13:46;;;;;;;4.22;0.90;;;18.80;99.90;;;18.39;100.00;96473.00;4984998;28;20061;-74
2023/09/21 03:16:16;;;;;;;1.63;0.80;;;18.80;99.90;;;18.37;100.00;96475.78;4986503;28;20082;-74
2023/09/21 03:18:57;;;;;;;2.53;0.70;;;18.80;99.90;;;18.56;100.00;96472.25;4988947;28;20898;-74
2023/09/21 03:21:45;;;;;;;4.25;1.15;;;18.90;99.90;;;18.46;100.00;96468.84;4985150;28;20049;-75
2023/09/21 03:24:13;;;;;;;3.00;1.00;;;19.00;99.90;;;18.43;100.00;96463.88;4985521;28;20058;-74
2023/09/21 03:26:40;;;;;;;1.10;0.70;;;18.90;99.90;;;18.29;100.00;96459.06;5000310;28;20060;-74
2023/09/21 03:29:10;;;;;;;2.35;0.85;;;19.00;99.90;;;18.29;100.00;96457.28;4984379;28;20050;-74
2023/09/21 03:31:37;;;;;;;2.33;0.70;;;18.90;99.90;;;18.19;100.00;96446.75;4983623;28;20078;-74
2023/09/21 03:34:05;;;;;;;2.05;0.60;;;18.80;99.90;;;18.37;100.00;96446.88;4985155;28;20430;-74
2023/09/21 03:36:36;;;;;;;3.00;0.70;;;18.80;99.90;;;18.25;100.00;96444.56;4986010;28;20061;-74
2023/09/21 03:39:09;;;;;;;3.00;0.70;;;18.80;99.90;;;18.23;100.00;96443.88;4982375;28;20588;-74
2023/09/21 03:41:37;;;;;;;2.10;0.80;;;18.90;99.90;;;18.19;100.00;96436.25;4983432;28;20141;-74
2023/09/21 03:44:05;;;;;;;1.83;0.63;;;18.80;99.90;;;18.26;100.00;96426.00;4986768;28;20127;-74
2023/09/21 03:46:33;;;;;;;4.18;0.60;;;18.80;99.90;;;18.19;100.00;96425.75;4985726;28;20145;-74
2023/09/21 03:49:00;;;;;;;1.70;0.60;;;18.80;99.90;;;18.27;100.00;96421.59;4983154;28;20047;-74
2023/09/21 03:51:27;;;;;;;2.13;0.60;;;18.80;99.90;;;18.37;100.00;96427.66;4967066;28;20501;-74
2023/09/21 03:53:56;;;;;;;2.55;0.68;;;18.80;99.90;;;18.33;100.00;96416.59;4985777;28;20093;-75
2023/09/21 03:56:40;;;;;;;2.45;0.60;;;18.80;99.90;;;18.39;100.00;96413.41;4987186;28;20050;-74
2023/09/21 03:59:52;;;;;;;3.40;0.60;;;18.90;99.90;;;18.27;100.00;96408.44;4988010;28;20058;-74
2023/09/21 04:02:27;;;;;;;1.88;0.70;;;18.90;99.90;;;18.30;100.00;96405.56;4981968;28;20803;-74
2023/09/21 04:05:24;;;;;;;1.80;0.50;;;18.80;99.90;;;18.23;100.00;96400.03;4984393;28;20050;-74
2023/09/21 04:08:14;;;;;;;2.70;0.60;;;18.80;99.90;;;18.10;100.00;96402.13;4982105;28;20150;-75
2023/09/21 04:10:45;;;;;;;2.30;0.60;;;18.80;99.90;;;18.14;100.00;96404.34;4983382;28;20051;-75
2023/09/21 04:13:14;;;;;;;1.63;0.80;;;18.70;99.90;;;18.06;100.00;96398.94;4984091;28;20137;-74
2023/09/21 04:15:41;;;;;;;2.78;0.80;;;18.70;99.90;;;18.07;100.00;96405.06;4982240;28;20065;-74
2023/09/21 04:18:09;;;;;;;1.85;0.95;;;18.60;99.90;;;17.98;100.00;96407.53;4981952;28;20714;-74
2023/09/21 04:20:56;;;;;;;2.80;0.60;;;18.60;99.90;;;18.06;100.00;96416.50;4983496;28;20413;-74
2023/09/21 04:23:29;;;;;;;2.05;0.70;;;18.50;99.90;;;17.87;100.00;96412.94;4983511;28;20647;-74
2023/09/21 04:25:56;;;;;;;1.38;0.52;;;18.50;99.90;;;17.92;100.00;96410.72;4983440;28;20094;-74
2023/09/21 04:28:26;;;;;;;1.45;0.60;;;18.40;99.90;;;17.81;100.00;96404.75;4985344;28;20111;-74
2023/09/21 04:30:53;;;;;;;1.95;0.57;;;18.40;99.90;;;17.81;100.00;96405.59;4980316;28;20050;-74
2023/09/21 04:33:20;;;;;;;1.90;0.60;;;18.40;99.90;;;17.76;100.00;96406.00;4981209;28;20153;-75
2023/09/21 04:35:47;;;;;;;2.33;0.73;;;18.40;99.90;;;17.83;100.00;96410.72;4980571;28;20042;-74
2023/09/21 04:38:44;;;;;;;2.38;0.70;;;18.30;99.90;;;17.90;100.00;96407.44;4981108;28;20429;-74
2023/09/21 04:41:15;;;;;;;2.38;0.70;;;18.40;99.90;;;17.83;100.00;96411.56;4966691;28;20066;-74
2023/09/21 04:43:43;;;;;;;2.47;0.70;;;18.40;99.90;;;17.77;100.00;96418.16;4984174;28;21016;-74
2023/09/21 04:46:12;;;;;;;1.45;0.60;;;18.40;99.90;;;17.84;100.00;96413.22;4985696;28;20281;-74
2023/09/21 04:48:41;;;;;;;3.40;0.63;;;18.40;99.90;;;17.77;100.00;96410.28;4982358;28;20057;-74
2023/09/21 04:51:17;;;;;;;2.72;0.60;;;18.40;99.90;;;17.94;100.00;96407.97;4994211;28;20109;-75
2023/09/21 04:53:49;;;;;;;2.50;0.50;;;18.40;99.90;;;17.90;100.00;96402.19;4983205;28;20057;-74
2023/09/21 04:56:24;;;;;;;3.30;0.50;;;18.50;99.90;;;17.98;100.00;96406.72;4980718;28;20050;-74
2023/09/21 04:59:38;;;;;;;1.95;0.50;;;18.50;99.90;;;17.93;100.00;96399.25;4905317;29;20130;-74
2023/09/21 05:02:10;;;;;;;2.08;0.77;;;18.50;99.90;;;18.19;100.00;96402.09;4901281;29;20087;-74
2023/09/21 05:04:37;;;;;;;1.42;0.70;;;18.60;99.90;;;18.19;100.00;96407.38;4903957;29;20048;-74
2023/09/21 05:07:05;;;;;;;1.95;0.88;;;18.60;99.90;;;18.27;100.00;96398.78;4905055;29;20131;-74
2023/09/21 05:09:33;;;;;;;1.10;0.52;;;18.70;99.90;;;18.21;100.00;96403.78;4890181;29;20087;-74
2023/09/21 05:12:05;;;;;;;10.80;1.27;;;18.80;99.90;;;18.47;100.00;96407.44;4896466;29;20526;-75
2023/09/21 05:14:37;;;;;;;1.27;0.50;;;18.80;99.90;;;18.39;100.00;96409.97;4909921;29;20100;-74
2023/09/21 05:17:06;;;;;;;4.15;0.70;;;18.90;99.90;;;18.38;100.00;96409.13;4891554;29;20056;-74
2023/09/21 05:19:34;;;;;;;2.80;0.60;;;18.90;99.90;;;18.30;100.00;96409.00;4894290;29;20490;-74
2023/09/21 05:22:51;;;;;;;3.17;0.40;;;18.90;99.90;;;18.38;100.00;96414.41;4892631;29;20167;-75
2023/09/21 05:25:21;;;;;;;1.98;0.60;;;18.80;99.90;;;18.27;100.00;96411.06;4906454;29;20048;-75
2023/09/21 05:27:52;;;;;;;1.42;0.50;;;18.90;99.90;;;18.28;100.00;96420.63;4908310;29;20610;-74
2023/09/21 05:30:19;;;;;;;5.18;0.57;;;18.80;99.90;;;18.30;100.00;96419.50;4906391;29;20677;-74
2023/09/21 05:32:46;;;;;;;1.63;0.50;;;18.80;99.90;;;18.30;100.00;96421.31;4897247;29;20059;-74
2023/09/21 05:35:16;;;;;;;1.30;0.52;;;18.90;99.90;;;18.29;100.00;96427.53;4906491;28;20526;-75
2023/09/21 05:37:44;;;;;;;0.88;0.47;;;18.80;99.90;;;18.33;100.00;96413.16;4985911;28;20502;-74
2023/09/21 05:40:15;;;;;;;1.23;0.50;;;18.90;99.90;;;18.39;100.00;96420.47;4969726;28;20413;-74
2023/09/21 05:42:44;;;;;;;1.42;0.55;;;18.90;99.90;;;18.45;100.00;96421.69;4981154;28;20061;-74
2023/09/21 05:45:11;;;;;;;2.22;0.50;;;18.90;99.90;;;18.43;100.00;96427.09;4983804;28;20345;-74
2023/09/21 05:47:43;;;;;;;1.73;0.65;;;19.00;99.90;;;18.54;100.00;96426.94;4980302;28;20046;-74
2023/09/21 05:50:18;;;;;;;1.52;0.40;;;19.00;99.90;;;18.50;100.00;96420.31;4984069;28;20053;-74
2023/09/21 05:52:54;;;;;;;1.40;0.60;;;18.90;99.90;;;18.37;100.00;96428.47;4978122;28;20049;-75
2023/09/21 05:55:28;;;;;;;4.40;0.80;;;18.90;99.90;;;18.18;100.00;96426.72;4981793;28;20098;-74
2023/09/21 05:57:55;;;;;;;4.03;0.60;;;18.90;99.90;;;18.10;100.00;96428.41;4981403;28;20050;-74
2023/09/21 06:00:30;;;;;;;3.78;0.85;;;18.80;99.90;;;18.11;100.00;96433.53;4980092;28;20521;-74
2023/09/21 06:03:12;;;;;;;1.48;0.63;;;18.80;99.90;;;18.02;100.00;96436.13;4978536;28;20058;-74
2023/09/21 06:05:46;;;;;;;1.98;0.70;;;18.70;99.90;;;18.14;100.00;96440.28;4996193;28;20042;-75
2023/09/21 06:08:14;;;;;;;3.20;1.23;;;18.50;99.90;;;17.96;100.00;96440.16;4980890;28;20112;-74
2023/09/21 06:10:41;;;;;;;2.75;1.05;;;18.50;99.90;;;17.93;100.00;96440.44;4983468;28;20510;-74
2023/09/21 06:13:08;;;;;;;2.53;0.60;;;18.40;99.90;;;17.91;100.00;96445.81;4980736;28;20086;-75
2023/09/21 06:15:37;;;;;;;2.78;0.70;;;18.40;99.90;;;17.86;100.00;96445.41;4982012;28;20104;-74
2023/09/21 06:18:08;;;;;;;4.68;0.77;;;18.30;99.90;;;17.84;100.00;96441.28;4993838;28;20614;-75
2023/09/21 06:20:36;;;;;;;1.98;0.80;;;18.40;99.90;;;17.81;100.00;96452.84;4979818;28;20133;-75
2023/09/21 06:23:06;;;;;;;2.83;0.77;;;18.40;99.90;;;17.76;100.00;96447.97;4962975;28;20507;-74
2023/09/21 06:25:35;;;;;;;2.13;0.70;;;18.40;99.90;;;17.66;100.00;96439.28;4981303;28;20133;-75
2023/09/21 06:28:15;;;;;;;2.83;0.80;;;18.30;99.90;;;17.63;100.00;96450.06;4982569;28;20386;-74
2023/09/21 06:30:42;;;;;;;1.35;0.70;;;18.30;99.90;;;17.66;100.00;96457.66;4983622;28;20054;-74
2023/09/21 06:33:09;;;;;;;1.40;0.70;;;18.30;99.90;;;17.71;100.00;96459.88;4980557;28;20144;-74
2023/09/21 06:35:37;;;;;;;2.63;0.60;;;18.20;99.90;;;17.70;100.00;96458.22;4999353;28;20045;-75
2023/09/21 06:38:07;;;;;;;2.78;0.60;;;18.10;99.90;;;17.54;100.00;96462.22;4982194;28;20055;-74
2023/09/21 06:40:36;;;;;;;4.80;0.80;;;18.10;99.90;;;17.60;100.00;96467.88;4980969;28;20495;-75
2023/09/21 06:43:07;;;;;;;1.45;0.70;;;18.10;99.90;;;17.52;100.00;96460.69;4969706;28;20534;-74
2023/09/21 06:45:34;;;;;;;2.92;0.70;;;18.10;99.90;;;17.50;100.00;96473.13;4986514;28;20211;-74
2023/09/21 06:48:01;;;;;;;2.95;1.00;;;18.10;99.90;;;17.41;100.00;96472.13;4984025;28;20054;-75
2023/09/21 06:50:29;;;;;;;3.88;1.00;;;18.10;99.90;;;17.42;100.00;96472.94;4986617;28;20057;-75
2023/09/21 06:53:05;;;;;;;2.47;0.77;;;18.10;99.90;;;17.49;100.00;96468.81;4987260;28;20324;-75
2023/09/21 06:55:35;;;;;;;3.17;0.75;;;18.10;99.90;;;17.46;100.00;96475.16;4998816;28;20105;-75
2023/09/21 06:58:03;;;;;;;3.20;0.80;;;18.10;99.90;;;17.36;100.00;96482.19;4987966;28;20070;-75
2023/09/21 07:00:30;;;;;;;1.80;0.80;;;18.10;99.90;;;17.30;100.00;96480.91;4986534;28;20082;-75
2023/09/21 07:02:59;;;;;;;5.05;0.70;;;18.00;99.90;;;17.12;100.00;96480.72;4984286;28;20054;-75
2023/09/21 07:05:46;;;;;;;1.45;0.50;;;17.80;99.90;;;17.03;100.00;96488.56;4996645;28;20050;-75
2023/09/21 07:08:13;;;;;;;2.85;0.80;;;17.70;99.90;;;16.99;100.00;96488.00;4972877;28;20046;-75
2023/09/21 07:10:40;;;;;;;2.67;0.80;;;17.70;99.90;;;17.02;100.00;96489.53;4987587;28;20743;-75
2023/09/21 07:13:08;;;;;;;4.30;0.75;;;17.70;99.90;;;16.95;100.00;96485.78;4985838;28;20288;-75
2023/09/21 07:15:39;;;;;;;1.88;0.85;;;17.60;99.90;;;17.02;100.00;96479.06;4984671;28;20189;-75
2023/09/21 07:18:09;;;;;;;2.65;0.70;;;17.60;99.90;;;17.09;100.00;96480.19;4985366;28;20153;-75
2023/09/21 07:20:37;;;;;;;1.38;0.70;;;17.60;99.90;;;17.20;100.00;96466.97;4980731;28;20580;-75
2023/09/21 07:23:04;;;;;;;4.28;0.90;;;17.70;99.90;;;17.34;100.00;96463.97;5001956;28;20451;-75
2023/09/21 07:25:32;;;;;;;1.98;0.85;;;17.80;99.90;;;17.42;100.00;96449.34;4987198;28;20058;-75
2023/09/21 07:27:59;;;;;;;3.10;0.90;;;17.90;99.90;;;17.50;100.00;96444.25;4997260;28;20102;-75
2023/09/21 07:30:28;;;;;;;2.47;0.90;;;17.90;99.90;;;17.65;100.00;96440.28;4980774;28;20188;-75
2023/09/21 07:32:56;;;;;;;6.57;1.20;;;18.00;99.90;;;17.73;100.00;96435.16;4984427;28;20101;-75
2023/09/21 07:35:24;;;;;;;1.67;0.70;;;18.10;99.90;;;17.85;100.00;96417.50;4979734;28;20051;-75
2023/09/21 07:37:54;;;;;;;2.35;0.82;;;18.30;99.90;;;17.96;100.00;96412.09;4982657;28;20117;-74
2023/09/21 07:40:24;;;;;;;2.42;0.70;;;18.40;99.90;;;18.02;100.00;96412.50;4982825;28;20064;-75
2023/09/21 07:42:51;;;;;;;3.25;0.75;;;18.40;99.90;;;18.20;100.00;96408.22;4981434;28;20142;-75
2023/09/21 07:45:22;;;;;;;2.08;0.88;;;18.50;99.90;;;18.56;100.00;96405.75;4984593;28;20419;-76
2023/09/21 07:47:50;;;;;;;3.08;0.80;;;18.70;99.90;;;18.73;100.00;96397.13;4985758;28;20056;-75
2023/09/21 07:50:23;;;;;;;1.85;0.68;;;19.00;99.90;;;19.23;100.00;96386.22;4981280;28;20134;-76
2023/09/21 07:52:56;;;;;;;2.60;0.77;;;19.40;99.90;;;19.62;100.00;96383.31;4996799;28;20050;-75
2023/09/21 07:55:24;;;;;;;1.85;0.70;;;19.80;99.90;;;20.44;100.00;96368.13;4983035;28;20050;-75
2023/09/21 07:57:52;;;;;;;3.72;0.90;;;20.70;99.90;;;20.53;100.00;96357.66;4981667;28;20073;-75
2023/09/21 08:00:21;;;;;;;1.88;0.80;;;21.00;99.90;;;20.18;100.00;96368.13;4982238;28;20058;-75
2023/09/21 08:02:49;;;;;;;2.53;0.88;;;20.90;99.90;;;19.80;100.00;96372.81;4996138;28;20054;-75
2023/09/21 08:05:18;;;;;;;1.75;0.90;;;20.80;99.90;;;19.90;100.00;96372.72;4999155;28;20050;-75
2023/09/21 08:07:46;;;;;;;3.00;1.00;;;20.70;99.90;;;20.06;100.00;96369.38;4979611;28;20050;-76
2023/09/21 08:10:14;;;;;;;2.95;0.80;;;20.70;99.90;;;19.91;100.00;96365.63;4981026;28;20901;-75
2023/09/21 08:12:50;;;;;;;1.60;0.57;;;20.70;99.90;;;19.97;100.00;96355.31;4983478;28;20066;-75
2023/09/21 08:15:33;;;;;;;1.38;0.77;;;20.60;99.90;;;20.26;100.00;96356.81;4995416;28;20054;-75
2023/09/21 08:18:00;;;;;;;1.90;0.70;;;21.00;99.90;;;21.00;100.00;96355.38;4986191;28;20236;-75
2023/09/21 08:20:28;;;;;;;2.38;0.80;;;21.90;99.90;;;21.59;100.00;96349.25;4984695;28;20057;-75
2023/09/21 08:22:55;;;;;;;1.38;0.68;;;22.90;99.90;;;22.06;100.00;96341.47;4985365;28;20057;-75
2023/09/21 08:25:23;;;;;;;3.70;0.60;;;23.10;99.90;;;21.48;100.00;96339.81;4983120;28;20130;-76
2023/09/21 08:27:50;;;;;;;1.45;0.75;;;23.20;99.90;;;21.52;100.00;96346.44;4978451;28;20078;-75
2023/09/21 08:30:17;;;;;;;1.35;0.47;;;22.90;99.90;;;21.79;100.00;96344.47;4998002;28;20073;-75
2023/09/21 08:32:45;;;;;;;1.65;0.60;;;23.10;99.90;;;22.23;100.00;96342.28;4983632;28;20050;-75
2023/09/21 08:35:16;;;;;;;1.90;0.60;;;23.40;99.90;;;22.00;100.00;96352.72;4998046;28;20068;-75
2023/09/21 08:37:43;;;;;;;1.20;0.52;;;23.60;99.90;;;22.52;100.00;96341.72;4982339;28;20052;-75
2023/09/21 08:40:11;;;;;;;2.83;0.60;;;23.90;99.90;;;22.77;100.00;96347.75;4983485;28;20066;-75
2023/09/21 08:42:39;;;;;;;3.25;0.75;;;24.60;99.90;;;23.56;100.00;96333.59;4986585;28;20164;-75
2023/09/21 08:45:09;;;;;;;1.50;0.40;;;25.20;99.90;;;22.67;100.00;96338.38;4984087;28;20050;-75
2023/09/21 08:47:38;;;;;;;2.33;0.50;;;24.80;99.90;;;21.97;100.00;96334.56;4969463;28;20129;-75
2023/09/21 08:50:09;;;;;;;4.72;0.60;;;23.90;99.90;;;21.50;100.00;96341.31;4982498;28;20069;-75
2023/09/21 08:52:39;;;;;;;2.47;0.60;;;23.40;99.90;;;21.69;100.00;96331.41;4983835;28;20514;-75
2023/09/21 08:55:12;;;;;;;1.88;0.60;;;22.90;99.90;;;22.26;100.00;96333.19;4999081;28;20047;-75
2023/09/21 08:57:39;;;;;;;1.20;0.52;;;23.00;99.90;;;22.92;100.00;96325.84;4980985;28;20055;-75
2023/09/21 09:00:08;;;;;;;3.08;0.50;;;23.30;99.90;;;22.60;100.00;96324.19;4979553;28;20126;-75
2023/09/21 09:02:36;;;;;;;1.45;0.50;;;23.40;99.90;;;22.72;100.00;96317.53;4982738;28;20088;-74
2023/09/21 09:05:08;;;;;;;2.25;0.57;;;23.60;99.90;;;23.16;100.00;96328.41;4981869;28;20058;-75
2023/09/21 09:07:40;;;;;;;2.65;0.60;;;23.80;99.90;;;23.23;100.00;96322.41;4984902;28;20050;-75
2023/09/21 09:10:13;;;;;;;1.42;0.50;;;23.80;99.90;;;22.48;100.00;96315.81;4981044;28;20120;-75
2023/09/21 09:12:41;;;;;;;1.42;0.60;;;23.70;99.90;;;22.10;100.00;96313.72;4978404;28;20482;-74
2023/09/21 09:15:09;;;;;;;3.28;0.60;;;23.20;99.90;;;22.10;100.00;96318.16;4982378;28;20116;-75
2023/09/21 09:17:39;;;;;;;4.72;0.80;;;22.70;99.90;;;21.80;100.00;96322.34;4983056;28;20133;-75
2023/09/21 09:20:07;;;;;;;1.75;0.40;;;22.50;99.90;;;21.76;100.00;96313.09;4981505;28;20055;-74
2023/09/21 09:22:34;;;;;;;2.65;0.60;;;22.40;99.90;;;22.55;100.00;96311.47;4983484;28;20137;-75
2023/09/21 09:25:11;;;;;;;3.22;0.77;;;22.80;99.90;;;22.89;100.00;96312.97;4982282;28;20558;-75
2023/09/21 09:27:41;;;;;;;2.92;0.57;;;23.40;99.90;;;23.04;100.00;96305.19;5000633;28;20078;-75
2023/09/21 09:30:12;;;;;;;2.22;0.60;;;23.40;99.90;;;23.65;100.00;96316.66;4966663;28;20236;-75
2023/09/21 09:32:42;;;;;;;2.45;0.73;;;23.70;99.90;;;24.40;100.00;96314.97;4981801;28;20058;-75
2023/09/21 09:35:13;;;;;;;3.15;0.40;;;24.60;99.90;;;24.59;100.00;96309.16;4980472;28;20077;-75
2023/09/21 09:37:42;;;;;;;3.80;0.60;;;25.30;99.90;;;25.07;100.00;96310.56;4979299;28;20055;-75
2023/09/21 09:40:18;;;;;;;2.40;0.52;;;26.00;99.90;;;25.45;100.00;96313.81;4978483;28;20043;-75
2023/09/21 09:42:48;;;;;;;2.83;0.50;;;;;;;25.90;100.00;96306.47;4980059;28;20058;-75
2023/09/21 09:45:24;;;;;;;3.10;0.52;;;25.70;99.90;;;24.76;100.00;96304.44;4990760;28;20050;-76
2023/09/21 09:48:01;;;;;;;2.33;0.57;;;25.50;99.90;;;24.26;100.00;96299.88;4984538;28;20046;-76
2023/09/21 09:50:33;;;;;;;3.08;0.60;;;25.60;99.90;;;24.31;100.00;96298.31;4967009;28;20112;-76
2023/09/21 09:53:05;;;;;;;2.58;0.47;;;25.60;99.90;;;24.55;100.00;96304.41;4982401;28;20537;-76
2023/09/21 09:55:35;;;;;;;2.95;0.60;;;25.20;99.90;;;24.20;100.00;96296.97;4982237;28;20112;-75
2023/09/21 09:58:04;;;;;;;2.85;0.57;;;25.10;99.90;;;24.34;100.00;96294.50;4974189;28;20207;-75
2023/09/21 10:00:31;;;;;;;4.00;0.60;;;25.10;99.90;;;23.76;100.00;96299.53;4966894;28;20038;-76
2023/09/21 10:02:59;;;;;;;1.45;0.50;;;25.50;99.90;;;23.33;100.00;96292.09;4968575;28;20054;-76
2023/09/21 10:05:27;;;;;;;2.28;0.50;;;24.80;99.90;;;22.49;100.00;96275.97;4980354;28;20423;-78
2023/09/21 10:07:59;;;;;;;3.20;0.50;;;24.20;99.90;;;22.58;100.00;96276.78;4981678;28;20059;-75
2023/09/21 10:10:53;;;;;;;;;;;23.90;99.90;;;22.92;100.00;96270.28;4982863;28;20061;-74
2023/09/21 10:13:25;;;;;;;4.55;0.63;;;23.90;99.90;;;23.26;100.00;96274.41;4984615;28;19998;-75
2023/09/21 10:16:05;;;;;;;2.15;0.60;;;24.00;99.90;;;23.37;100.00;96266.06;4982556;28;20141;-75
2023/09/21 10:18:37;;;;;;;2.28;0.50;;;24.10;99.90;;;23.63;100.00;96271.00;4987084;28;20061;-75
2023/09/21 10:21:39;;;;;;;1.45;0.50;;;24.40;99.90;;;23.71;100.00;96262.13;4984185;28;20046;-76
2023/09/21 10:24:18;;;;;;;2.33;0.60;;;24.60;99.90;;;23.08;100.00;96248.22;4957477;28;20058;-76
2023/09/21 10:26:49;;;;;;;1.90;0.50;;;24.20;99.90;;;23.10;100.00;96252.34;4984363;28;20112;-76
2023/09/21 10:29:28;;;;;;;2.47;0.60;;;23.70;99.90;;;22.80;100.00;96254.00;4985817;28;20055;-76
2023/09/21 10:32:05;;;;;;;2.78;0.47;;;23.30;99.90;;;23.15;100.00;96242.06;4987473;28;20116;-76